Aviation Digital Data Service (ADDS)

Output produced by METARs form (1153 UTC 23 June 2021)
found at http://www.aviationweather.gov/metar/data/
 
KSAV 231053Z 25003KT 10SM FEW004 SCT080 BKN250 22/22 A3004 RMK AO2 SLP173 T02220217
KSAV 231136Z 2312/2412 VRB03KT P6SM SCT006 BKN080 
     FM231400 33007KT P6SM SCT035 
     FM231700 03008KT P6SM SCT040 
     FM232100 09009KT P6SM SCT050 
     FM240300 04005KT P6SM FEW050
       
KSVN 231056Z 00000KT 10SM BKN080 22/21 A3002 RMK AO2A SLP169 T02240214 $
TAF KSVN 230400Z 2304/2410 VRB06KT 9999 FEW015 QNH2996INS 
     BECMG 2308/2309 VRB06KT 6000 BR SCT010 QNH2999INS 
     BECMG 2314/2315 30009KT 9999 NSW FEW010 SCT020 SCT035 QNH3010INS 
     BECMG 2317/2318 09010G15KT 9999 SCT040 QNH3006INS TX28/2320Z TN22/2311Z
       
KLHW 231100Z 00000KT 6SM BR FEW001 22/21 A3002 RMK SLP168 53016 $
KTBR 231135Z AUTO 33004KT 10SM CLR 20/19 A3006 RMK AO2 T02000191
KVDI 231135Z AUTO 34004KT 10SM SCT050 21/20 A3008 RMK AO2
KJYL 231135Z AUTO 00000KT 10SM CLR 21/20 A3007 RMK AO2 T02050200
KDBN 231135Z AUTO 00000KT 10SM SCT048 19/18 A3009 RMK AO2
KJES 231135Z AUTO 00000KT 1/4SM FG OVC002 23/22 A3008 RMK AO2
KSSI 231140Z 2312/2412 26006KT P6SM SCT008 BKN020 
     TEMPO 2312/2314 OVC005 
     FM231400 28006KT P6SM SCT015 BKN030 
     FM232100 11010KT P6SM VCSH SCT035 BKN200 
     FM240000 10010KT P6SM SCT035 BKN200 
     FM240900 06009KT P6SM SCT014 BKN035 AMD NOT SKED
       
KBQK 231135Z AUTO 00000KT 1 1/2SM BR OVC003 23/22 A3006 RMK AO2 T02270223
KAYS 231135Z AUTO 00000KT 7SM OVC004 23/22 A3007 RMK AO2 T02250219
KNBC 231137Z 10SM 24/22 A3005 RMK AO2 T02440217 $
TAF KNBC 2309/2409 27008KT 9999 SCT030 BKN050 QNH2997INS 
     TEMPO 2309/2312 VRB05KT 2000 BR OVC004 BKN010 
     BECMG 2312/2314 02007KT 9999 SCT025 BKN040 QNH3005INS 
     FM231830 05010KT 9999 SCT050 QNH3007INS T29/2318Z T21/2409Z
       
KHXD 231150Z 00000KT 7SM OVC008 24/22 A3006